sensor_id;sensor_type;location;lat;lon;timestamp;temperature;humidity
67799;SHT30;54596;43.216;27.904;2023-10-09T00:01:51;14.24;66.24
67799;SHT30;54596;43.216;27.904;2023-10-09T00:04:18;14.28;66.08
67799;SHT30;54596;43.216;27.904;2023-10-09T00:06:46;14.25;66.01
67799;SHT30;54596;43.216;27.904;2023-10-09T00:09:12;14.22;66.19
67799;SHT30;54596;43.216;27.904;2023-10-09T00:11:49;14.28;66.01
67799;SHT30;54596;43.216;27.904;2023-10-09T00:14:25;14.24;66.22
67799;SHT30;54596;43.216;27.904;2023-10-09T00:16:51;14.21;66.37
67799;SHT30;54596;43.216;27.904;2023-10-09T00:19:26;14.19;66.38
67799;SHT30;54596;43.216;27.904;2023-10-09T00:21:58;14.15;66.41
67799;SHT30;54596;43.216;27.904;2023-10-09T00:24:32;14.08;66.61
67799;SHT30;54596;43.216;27.904;2023-10-09T00:26:57;14.08;66.69
67799;SHT30;54596;43.216;27.904;2023-10-09T00:29:41;14.01;66.75
67799;SHT30;54596;43.216;27.904;2023-10-09T00:32:14;14.01;66.50
67799;SHT30;54596;43.216;27.904;2023-10-09T00:34:55;13.93;66.56
67799;SHT30;54596;43.216;27.904;2023-10-09T00:37:24;14.00;66.56
67799;SHT30;54596;43.216;27.904;2023-10-09T00:39:52;14.04;66.25
67799;SHT30;54596;43.216;27.904;2023-10-09T00:42:24;14.08;66.18
67799;SHT30;54596;43.216;27.904;2023-10-09T00:44:55;13.97;65.69
67799;SHT30;54596;43.216;27.904;2023-10-09T00:47:21;13.91;65.74
67799;SHT30;54596;43.216;27.904;2023-10-09T00:52:37;13.87;66.00
67799;SHT30;54596;43.216;27.904;2023-10-09T00:55:16;13.91;65.81
67799;SHT30;54596;43.216;27.904;2023-10-09T00:57:47;13.87;65.68
67799;SHT30;54596;43.216;27.904;2023-10-09T01:00:16;13.88;65.68
67799;SHT30;54596;43.216;27.904;2023-10-09T01:03:01;13.84;65.38
67799;SHT30;54596;43.216;27.904;2023-10-09T01:05:47;13.88;65.50
67799;SHT30;54596;43.216;27.904;2023-10-09T01:08:31;13.93;65.54
67799;SHT30;54596;43.216;27.904;2023-10-09T01:11:07;13.90;65.03
67799;SHT30;54596;43.216;27.904;2023-10-09T01:13:39;13.93;65.33
67799;SHT30;54596;43.216;27.904;2023-10-09T01:16:25;13.90;64.86
67799;SHT30;54596;43.216;27.904;2023-10-09T01:18:55;13.83;65.24
67799;SHT30;54596;43.216;27.904;2023-10-09T01:21:24;13.73;64.66
67799;SHT30;54596;43.216;27.904;2023-10-09T01:23:51;13.66;64.99
67799;SHT30;54596;43.216;27.904;2023-10-09T01:29:22;13.69;64.87
67799;SHT30;54596;43.216;27.904;2023-10-09T01:31:54;13.73;65.00
67799;SHT30;54596;43.216;27.904;2023-10-09T01:34:31;13.65;65.11
67799;SHT30;54596;43.216;27.904;2023-10-09T01:37:20;13.62;65.05
67799;SHT30;54596;43.216;27.904;2023-10-09T01:39:55;13.55;65.39
67799;SHT30;54596;43.216;27.904;2023-10-09T01:42:24;13.40;65.59
67799;SHT30;54596;43.216;27.904;2023-10-09T01:44:50;13.31;66.00
67799;SHT30;54596;43.216;27.904;2023-10-09T01:47:16;13.32;66.14
67799;SHT30;54596;43.216;27.904;2023-10-09T01:49:44;13.36;66.19
67799;SHT30;54596;43.216;27.904;2023-10-09T01:52:15;13.29;66.40
67799;SHT30;54596;43.216;27.904;2023-10-09T01:54:42;13.28;66.47
67799;SHT30;54596;43.216;27.904;2023-10-09T01:57:13;13.22;66.60
67799;SHT30;54596;43.216;27.904;2023-10-09T01:59:39;13.14;66.81
67799;SHT30;54596;43.216;27.904;2023-10-09T02:02:10;13.11;67.01
67799;SHT30;54596;43.216;27.904;2023-10-09T02:05:04;13.11;66.93
67799;SHT30;54596;43.216;27.904;2023-10-09T02:07:48;13.01;67.09
67799;SHT30;54596;43.216;27.904;2023-10-09T02:10:18;12.93;67.11
67799;SHT30;54596;43.216;27.904;2023-10-09T02:12:55;12.90;67.16
67799;SHT30;54596;43.216;27.904;2023-10-09T02:15:47;12.86;67.29
67799;SHT30;54596;43.216;27.904;2023-10-09T02:18:17;12.84;67.23
67799;SHT30;54596;43.216;27.904;2023-10-09T02:23:32;12.79;67.55
67799;SHT30;54596;43.216;27.904;2023-10-09T02:26:17;12.76;67.79
67799;SHT30;54596;43.216;27.904;2023-10-09T02:28:59;12.79;67.84
67799;SHT30;54596;43.216;27.904;2023-10-09T02:31:28;12.80;67.93
67799;SHT30;54596;43.216;27.904;2023-10-09T02:34:19;12.86;67.92
67799;SHT30;54596;43.216;27.904;2023-10-09T02:36:50;12.86;67.99
67799;SHT30;54596;43.216;27.904;2023-10-09T02:39:25;12.81;67.65
67799;SHT30;54596;43.216;27.904;2023-10-09T02:41:55;12.80;67.63
67799;SHT30;54596;43.216;27.904;2023-10-09T02:44:27;12.79;67.69
67799;SHT30;54596;43.216;27.904;2023-10-09T02:47:00;12.77;67.76
67799;SHT30;54596;43.216;27.904;2023-10-09T02:49:30;12.81;67.87
67799;SHT30;54596;43.216;27.904;2023-10-09T02:51:56;12.83;67.99
67799;SHT30;54596;43.216;27.904;2023-10-09T02:54:21;12.87;67.93
67799;SHT30;54596;43.216;27.904;2023-10-09T02:56:49;12.83;67.98
67799;SHT30;54596;43.216;27.904;2023-10-09T02:59:22;12.72;68.37
67799;SHT30;54596;43.216;27.904;2023-10-09T03:01:48;12.75;68.50
67799;SHT30;54596;43.216;27.904;2023-10-09T03:04:14;12.72;68.53
67799;SHT30;54596;43.216;27.904;2023-10-09T03:06:41;12.73;68.69
67799;SHT30;54596;43.216;27.904;2023-10-09T03:09:19;12.67;68.32
67799;SHT30;54596;43.216;27.904;2023-10-09T03:11:53;12.64;68.20
67799;SHT30;54596;43.216;27.904;2023-10-09T03:14:20;12.64;68.37
67799;SHT30;54596;43.216;27.904;2023-10-09T03:16:47;12.56;67.14
67799;SHT30;54596;43.216;27.904;2023-10-09T03:19:15;12.59;67.21
67799;SHT30;54596;43.216;27.904;2023-10-09T03:21:42;12.35;64.96
67799;SHT30;54596;43.216;27.904;2023-10-09T03:24:08;12.34;64.73
67799;SHT30;54596;43.216;27.904;2023-10-09T03:26:34;12.35;64.05
67799;SHT30;54596;43.216;27.904;2023-10-09T03:28:59;12.36;64.27
67799;SHT30;54596;43.216;27.904;2023-10-09T03:31:32;12.41;64.35
67799;SHT30;54596;43.216;27.904;2023-10-09T03:33:59;12.41;63.65
67799;SHT30;54596;43.216;27.904;2023-10-09T03:36:25;12.41;63.46
67799;SHT30;54596;43.216;27.904;2023-10-09T03:38:54;12.31;63.02
67799;SHT30;54596;43.216;27.904;2023-10-09T03:41:21;12.22;63.03
67799;SHT30;54596;43.216;27.904;2023-10-09T03:43:46;12.15;62.83
67799;SHT30;54596;43.216;27.904;2023-10-09T03:46:12;12.10;62.95
67799;SHT30;54596;43.216;27.904;2023-10-09T03:49:01;12.05;62.90
67799;SHT30;54596;43.216;27.904;2023-10-09T03:51:28;12.13;62.92
67799;SHT30;54596;43.216;27.904;2023-10-09T03:53:55;12.20;62.72
67799;SHT30;54596;43.216;27.904;2023-10-09T03:56:21;12.28;62.39
67799;SHT30;54596;43.216;27.904;2023-10-09T03:58:48;12.34;62.04
67799;SHT30;54596;43.216;27.904;2023-10-09T04:01:19;12.36;61.68
67799;SHT30;54596;43.216;27.904;2023-10-09T04:03:54;12.45;61.34
67799;SHT30;54596;43.216;27.904;2023-10-09T04:06:22;12.38;60.97
67799;SHT30;54596;43.216;27.904;2023-10-09T04:08:48;12.39;60.83
67799;SHT30;54596;43.216;27.904;2023-10-09T04:11:16;12.39;60.65
67799;SHT30;54596;43.216;27.904;2023-10-09T04:13:44;12.39;60.06
67799;SHT30;54596;43.216;27.904;2023-10-09T04:16:12;12.31;59.20
67799;SHT30;54596;43.216;27.904;2023-10-09T04:18:56;12.35;59.35
67799;SHT30;54596;43.216;27.904;2023-10-09T04:21:26;12.21;59.14
67799;SHT30;54596;43.216;27.904;2023-10-09T04:24:02;12.13;59.31
67799;SHT30;54596;43.216;27.904;2023-10-09T04:26:39;12.15;59.42
67799;SHT30;54596;43.216;27.904;2023-10-09T04:29:14;12.13;59.66
67799;SHT30;54596;43.216;27.904;2023-10-09T04:31:59;12.22;59.60
67799;SHT30;54596;43.216;27.904;2023-10-09T04:34:26;12.25;59.29
67799;SHT30;54596;43.216;27.904;2023-10-09T04:37:00;12.32;59.04
67799;SHT30;54596;43.216;27.904;2023-10-09T04:39:29;12.32;59.05
67799;SHT30;54596;43.216;27.904;2023-10-09T04:41:58;12.35;58.92
67799;SHT30;54596;43.216;27.904;2023-10-09T04:44:43;12.13;58.64
67799;SHT30;54596;43.216;27.904;2023-10-09T04:47:28;12.17;58.64
67799;SHT30;54596;43.216;27.904;2023-10-09T04:50:24;12.21;58.69
67799;SHT30;54596;43.216;27.904;2023-10-09T04:52:55;12.31;58.72
67799;SHT30;54596;43.216;27.904;2023-10-09T04:55:21;12.38;58.38
67799;SHT30;54596;43.216;27.904;2023-10-09T04:57:50;12.43;58.23
67799;SHT30;54596;43.216;27.904;2023-10-09T05:00:35;12.53;58.03
67799;SHT30;54596;43.216;27.904;2023-10-09T05:03:12;12.60;57.80
67799;SHT30;54596;43.216;27.904;2023-10-09T05:05:50;12.59;58.39
67799;SHT30;54596;43.216;27.904;2023-10-09T05:08:24;12.56;57.66
67799;SHT30;54596;43.216;27.904;2023-10-09T05:13:25;12.66;57.85
67799;SHT30;54596;43.216;27.904;2023-10-09T05:16:13;12.72;58.55
67799;SHT30;54596;43.216;27.904;2023-10-09T05:18:51;12.75;58.05
67799;SHT30;54596;43.216;27.904;2023-10-09T05:21:34;12.79;57.92
67799;SHT30;54596;43.216;27.904;2023-10-09T05:24:11;12.79;58.32
67799;SHT30;54596;43.216;27.904;2023-10-09T05:26:47;12.81;57.71
67799;SHT30;54596;43.216;27.904;2023-10-09T05:29:22;12.76;58.27
67799;SHT30;54596;43.216;27.904;2023-10-09T05:31:54;12.77;58.04
67799;SHT30;54596;43.216;27.904;2023-10-09T05:34:27;12.94;57.51
67799;SHT30;54596;43.216;27.904;2023-10-09T05:37:02;13.08;56.84
67799;SHT30;54596;43.216;27.904;2023-10-09T05:39:48;14.50;54.72
67799;SHT30;54596;43.216;27.904;2023-10-09T05:42:31;16.02;51.72
67799;SHT30;54596;43.216;27.904;2023-10-09T05:47:57;18.44;46.59
67799;SHT30;54596;43.216;27.904;2023-10-09T05:50:27;19.50;45.01
67799;SHT30;54596;43.216;27.904;2023-10-09T05:52:56;20.06;43.27
67799;SHT30;54596;43.216;27.904;2023-10-09T05:55:23;20.98;42.19
67799;SHT30;54596;43.216;27.904;2023-10-09T05:57:55;20.86;41.41
67799;SHT30;54596;43.216;27.904;2023-10-09T06:00:22;18.88;42.37
67799;SHT30;54596;43.216;27.904;2023-10-09T06:03:06;18.56;44.05
67799;SHT30;54596;43.216;27.904;2023-10-09T06:05:50;17.46;45.86
67799;SHT30;54596;43.216;27.904;2023-10-09T06:08:19;17.11;46.44
67799;SHT30;54596;43.216;27.904;2023-10-09T06:11:09;16.40;46.80
67799;SHT30;54596;43.216;27.904;2023-10-09T06:13:54;16.08;47.81
67799;SHT30;54596;43.216;27.904;2023-10-09T06:16:41;16.45;47.44
67799;SHT30;54596;43.216;27.904;2023-10-09T06:19:12;17.23;45.87
67799;SHT30;54596;43.216;27.904;2023-10-09T06:21:41;18.22;44.31
67799;SHT30;54596;43.216;27.904;2023-10-09T06:24:19;18.78;43.11
67799;SHT30;54596;43.216;27.904;2023-10-09T06:26:46;19.23;42.08
67799;SHT30;54596;43.216;27.904;2023-10-09T06:29:23;20.23;41.22
67799;SHT30;54596;43.216;27.904;2023-10-09T06:35:06;22.41;37.94
67799;SHT30;54596;43.216;27.904;2023-10-09T06:37:49;23.61;36.59
67799;SHT30;54596;43.216;27.904;2023-10-09T06:40:27;24.03;35.68
67799;SHT30;54596;43.216;27.904;2023-10-09T06:43:11;24.29;35.42
67799;SHT30;54596;43.216;27.904;2023-10-09T06:45:45;24.41;35.58
67799;SHT30;54596;43.216;27.904;2023-10-09T06:48:14;23.82;35.08
67799;SHT30;54596;43.216;27.904;2023-10-09T06:51:06;22.03;35.98
67799;SHT30;54596;43.216;27.904;2023-10-09T06:53:56;21.43;36.88
67799;SHT30;54596;43.216;27.904;2023-10-09T06:56:30;21.29;36.86
67799;SHT30;54596;43.216;27.904;2023-10-09T07:01:25;20.85;37.06
67799;SHT30;54596;43.216;27.904;2023-10-09T07:04:11;20.81;37.46
67799;SHT30;54596;43.216;27.904;2023-10-09T07:06:56;21.06;37.15
67799;SHT30;54596;43.216;27.904;2023-10-09T07:09:22;20.99;36.95
67799;SHT30;54596;43.216;27.904;2023-10-09T07:11:49;20.51;36.99
67799;SHT30;54596;43.216;27.904;2023-10-09T07:14:22;20.36;37.04
67799;SHT30;54596;43.216;27.904;2023-10-09T07:17:06;20.84;36.63
67799;SHT30;54596;43.216;27.904;2023-10-09T07:19:48;20.84;36.75
67799;SHT30;54596;43.216;27.904;2023-10-09T07:22:16;21.99;35.68
67799;SHT30;54596;43.216;27.904;2023-10-09T07:24:46;21.19;36.40
67799;SHT30;54596;43.216;27.904;2023-10-09T07:27:40;22.44;35.49
67799;SHT30;54596;43.216;27.904;2023-10-09T07:30:20;23.00;34.31
67799;SHT30;54596;43.216;27.904;2023-10-09T07:33:07;23.28;34.25
67799;SHT30;54596;43.216;27.904;2023-10-09T07:35:40;23.84;33.65
67799;SHT30;54596;43.216;27.904;2023-10-09T07:38:14;23.46;33.83
67799;SHT30;54596;43.216;27.904;2023-10-09T07:40:48;22.88;33.93
67799;SHT30;54596;43.216;27.904;2023-10-09T07:43:40;22.36;34.06
67799;SHT30;54596;43.216;27.904;2023-10-09T07:46:11;22.92;33.65
67799;SHT30;54596;43.216;27.904;2023-10-09T07:48:55;23.82;32.73
67799;SHT30;54596;43.216;27.904;2023-10-09T07:51:22;24.37;32.74
67799;SHT30;54596;43.216;27.904;2023-10-09T07:53:52;24.86;31.73
67799;SHT30;54596;43.216;27.904;2023-10-09T07:56:39;25.52;31.21
67799;SHT30;54596;43.216;27.904;2023-10-09T07:59:09;25.75;30.85
67799;SHT30;54596;43.216;27.904;2023-10-09T08:01:43;26.62;30.25
67799;SHT30;54596;43.216;27.904;2023-10-09T08:04:26;26.14;30.27
67799;SHT30;54596;43.216;27.904;2023-10-09T08:07:11;26.04;30.67
67799;SHT30;54596;43.216;27.904;2023-10-09T08:09:53;25.24;31.44
67799;SHT30;54596;43.216;27.904;2023-10-09T08:12:37;24.73;31.64
67799;SHT30;54596;43.216;27.904;2023-10-09T08:15:16;25.57;30.74
67799;SHT30;54596;43.216;27.904;2023-10-09T08:20:26;25.54;30.68
67799;SHT30;54596;43.216;27.904;2023-10-09T08:22:55;25.89;30.69
67799;SHT30;54596;43.216;27.904;2023-10-09T08:25:25;25.57;31.87
67799;SHT30;54596;43.216;27.904;2023-10-09T08:28:04;24.78;33.50
67799;SHT30;54596;43.216;27.904;2023-10-09T08:30:47;24.02;33.59
67799;SHT30;54596;43.216;27.904;2023-10-09T08:33:29;22.99;34.46
67799;SHT30;54596;43.216;27.904;2023-10-09T08:36:06;22.99;33.97
67799;SHT30;54596;43.216;27.904;2023-10-09T08:38:33;23.12;33.52
67799;SHT30;54596;43.216;27.904;2023-10-09T08:41:12;22.48;34.21
67799;SHT30;54596;43.216;27.904;2023-10-09T08:43:49;21.59;37.15
67799;SHT30;54596;43.216;27.904;2023-10-09T08:46:27;20.72;38.36
67799;SHT30;54596;43.216;27.904;2023-10-09T08:48:57;20.17;38.58
67799;SHT30;54596;43.216;27.904;2023-10-09T08:51:25;19.96;39.40
67799;SHT30;54596;43.216;27.904;2023-10-09T08:53:51;19.92;39.97
67799;SHT30;54596;43.216;27.904;2023-10-09T08:56:19;18.88;41.37
67799;SHT30;54596;43.216;27.904;2023-10-09T08:58:58;18.61;42.35
67799;SHT30;54596;43.216;27.904;2023-10-09T09:01:27;18.68;42.43
67799;SHT30;54596;43.216;27.904;2023-10-09T09:03:57;18.37;43.07
67799;SHT30;54596;43.216;27.904;2023-10-09T09:06:23;18.30;43.08
67799;SHT30;54596;43.216;27.904;2023-10-09T09:08:50;18.21;43.13
67799;SHT30;54596;43.216;27.904;2023-10-09T09:11:24;18.30;42.95
67799;SHT30;54596;43.216;27.904;2023-10-09T09:16:23;17.80;43.78
67799;SHT30;54596;43.216;27.904;2023-10-09T09:19:05;17.70;43.99
67799;SHT30;54596;43.216;27.904;2023-10-09T09:21:35;17.82;44.60
67799;SHT30;54596;43.216;27.904;2023-10-09T09:24:07;17.63;44.87
67799;SHT30;54596;43.216;27.904;2023-10-09T09:26:42;16.96;45.72
67799;SHT30;54596;43.216;27.904;2023-10-09T09:29:13;16.98;45.88
67799;SHT30;54596;43.216;27.904;2023-10-09T09:31:52;16.82;45.98
67799;SHT30;54596;43.216;27.904;2023-10-09T09:34:17;16.74;46.53
67799;SHT30;54596;43.216;27.904;2023-10-09T09:36:56;16.82;46.29
67799;SHT30;54596;43.216;27.904;2023-10-09T09:39:25;16.87;46.73
67799;SHT30;54596;43.216;27.904;2023-10-09T09:41:59;17.02;46.85
67799;SHT30;54596;43.216;27.904;2023-10-09T09:44:35;17.11;46.37
67799;SHT30;54596;43.216;27.904;2023-10-09T09:47:15;16.75;46.36
67799;SHT30;54596;43.216;27.904;2023-10-09T09:49:54;16.63;46.55
67799;SHT30;54596;43.216;27.904;2023-10-09T09:52:29;16.55;46.87
67799;SHT30;54596;43.216;27.904;2023-10-09T09:55:04;16.39;47.23
67799;SHT30;54596;43.216;27.904;2023-10-09T09:57:32;16.26;47.34
67799;SHT30;54596;43.216;27.904;2023-10-09T10:00:06;16.18;47.53
67799;SHT30;54596;43.216;27.904;2023-10-09T10:02:45;15.91;47.10
67799;SHT30;54596;43.216;27.904;2023-10-09T10:05:11;15.54;47.64
67799;SHT30;54596;43.216;27.904;2023-10-09T10:07:41;15.71;48.50
67799;SHT30;54596;43.216;27.904;2023-10-09T10:10:33;15.90;47.75
67799;SHT30;54596;43.216;27.904;2023-10-09T10:12:59;16.06;47.21
67799;SHT30;54596;43.216;27.904;2023-10-09T10:18:23;16.23;47.80
67799;SHT30;54596;43.216;27.904;2023-10-09T10:23:39;16.29;47.12
67799;SHT30;54596;43.216;27.904;2023-10-09T10:26:22;16.46;47.01
67799;SHT30;54596;43.216;27.904;2023-10-09T10:29:25;16.45;46.56
67799;SHT30;54596;43.216;27.904;2023-10-09T10:32:00;16.50;46.95
67799;SHT30;54596;43.216;27.904;2023-10-09T10:37:37;16.66;46.77
67799;SHT30;54596;43.216;27.904;2023-10-09T10:40:09;16.53;47.54
67799;SHT30;54596;43.216;27.904;2023-10-09T10:43:00;16.55;47.61
67799;SHT30;54596;43.216;27.904;2023-10-09T10:45:37;15.97;48.31
67799;SHT30;54596;43.216;27.904;2023-10-09T10:48:09;15.85;48.82
67799;SHT30;54596;43.216;27.904;2023-10-09T10:50:49;15.88;49.28
67799;SHT30;54596;43.216;27.904;2023-10-09T10:53:22;15.90;49.01
67799;SHT30;54596;43.216;27.904;2023-10-09T10:55:58;16.05;48.51
67799;SHT30;54596;43.216;27.904;2023-10-09T10:58:52;16.15;48.07
67799;SHT30;54596;43.216;27.904;2023-10-09T11:01:25;15.95;47.76
67799;SHT30;54596;43.216;27.904;2023-10-09T11:04:16;16.05;47.79
67799;SHT30;54596;43.216;27.904;2023-10-09T11:06:51;16.18;48.09
67799;SHT30;54596;43.216;27.904;2023-10-09T11:09:16;16.21;47.85
67799;SHT30;54596;43.216;27.904;2023-10-09T11:11:49;16.30;47.74
67799;SHT30;54596;43.216;27.904;2023-10-09T11:14:15;16.30;47.65
67799;SHT30;54596;43.216;27.904;2023-10-09T11:16:43;15.98;48.23
67799;SHT30;54596;43.216;27.904;2023-10-09T11:19:14;15.93;48.70
67799;SHT30;54596;43.216;27.904;2023-10-09T11:21:52;15.94;48.35
67799;SHT30;54596;43.216;27.904;2023-10-09T11:24:41;16.09;48.32
67799;SHT30;54596;43.216;27.904;2023-10-09T11:27:09;16.08;48.69
67799;SHT30;54596;43.216;27.904;2023-10-09T11:29:48;16.00;48.75
67799;SHT30;54596;43.216;27.904;2023-10-09T11:32:19;16.09;48.42
67799;SHT30;54596;43.216;27.904;2023-10-09T11:34:49;16.09;48.46
67799;SHT30;54596;43.216;27.904;2023-10-09T11:37:21;15.98;48.10
67799;SHT30;54596;43.216;27.904;2023-10-09T11:39:59;15.98;48.16
67799;SHT30;54596;43.216;27.904;2023-10-09T11:42:29;15.78;48.26
67799;SHT30;54596;43.216;27.904;2023-10-09T11:45:25;15.80;48.77
67799;SHT30;54596;43.216;27.904;2023-10-09T11:47:56;15.60;49.01
67799;SHT30;54596;43.216;27.904;2023-10-09T11:50:45;15.77;48.93
67799;SHT30;54596;43.216;27.904;2023-10-09T11:53:19;15.80;49.32
67799;SHT30;54596;43.216;27.904;2023-10-09T11:55:48;15.76;49.53
67799;SHT30;54596;43.216;27.904;2023-10-09T11:58:17;15.81;49.56
67799;SHT30;54596;43.216;27.904;2023-10-09T12:00:57;15.78;49.60
67799;SHT30;54596;43.216;27.904;2023-10-09T12:03:31;15.60;49.35
67799;SHT30;54596;43.216;27.904;2023-10-09T12:06:01;15.54;49.60
67799;SHT30;54596;43.216;27.904;2023-10-09T12:08:31;15.70;49.48
67799;SHT30;54596;43.216;27.904;2023-10-09T12:10:57;15.66;49.27
67799;SHT30;54596;43.216;27.904;2023-10-09T12:13:23;15.49;50.01
67799;SHT30;54596;43.216;27.904;2023-10-09T12:15:50;15.39;50.00
67799;SHT30;54596;43.216;27.904;2023-10-09T12:18:17;15.33;49.97
67799;SHT30;54596;43.216;27.904;2023-10-09T12:20:44;15.32;50.82
67799;SHT30;54596;43.216;27.904;2023-10-09T12:23:20;15.39;51.51
67799;SHT30;54596;43.216;27.904;2023-10-09T12:25:50;15.40;50.99
67799;SHT30;54596;43.216;27.904;2023-10-09T12:28:16;15.50;51.19
67799;SHT30;54596;43.216;27.904;2023-10-09T12:30:48;15.32;51.01
67799;SHT30;54596;43.216;27.904;2023-10-09T12:33:20;15.31;51.62
67799;SHT30;54596;43.216;27.904;2023-10-09T12:35:54;15.43;51.77
67799;SHT30;54596;43.216;27.904;2023-10-09T12:38:28;15.51;52.12
67799;SHT30;54596;43.216;27.904;2023-10-09T12:41:07;15.61;52.37
67799;SHT30;54596;43.216;27.904;2023-10-09T12:43:46;15.63;52.24
67799;SHT30;54596;43.216;27.904;2023-10-09T12:46:12;15.66;51.70
67799;SHT30;54596;43.216;27.904;2023-10-09T12:48:45;15.70;51.65
67799;SHT30;54596;43.216;27.904;2023-10-09T12:51:12;15.63;51.64
67799;SHT30;54596;43.216;27.904;2023-10-09T12:53:42;15.66;52.58
67799;SHT30;54596;43.216;27.904;2023-10-09T12:56:08;15.74;53.19
67799;SHT30;54596;43.216;27.904;2023-10-09T12:58:34;15.61;52.90
67799;SHT30;54596;43.216;27.904;2023-10-09T13:01:03;15.51;52.99
67799;SHT30;54596;43.216;27.904;2023-10-09T13:03:34;15.53;52.87
67799;SHT30;54596;43.216;27.904;2023-10-09T13:06:04;15.50;53.67
67799;SHT30;54596;43.216;27.904;2023-10-09T13:08:35;15.49;53.28
67799;SHT30;54596;43.216;27.904;2023-10-09T13:11:05;15.43;52.91
67799;SHT30;54596;43.216;27.904;2023-10-09T13:13:38;15.35;52.99
67799;SHT30;54596;43.216;27.904;2023-10-09T13:16:17;15.38;52.78
67799;SHT30;54596;43.216;27.904;2023-10-09T13:18:57;15.43;53.43
67799;SHT30;54596;43.216;27.904;2023-10-09T13:21:31;15.51;53.37
67799;SHT30;54596;43.216;27.904;2023-10-09T13:24:00;15.57;53.30
67799;SHT30;54596;43.216;27.904;2023-10-09T13:26:29;15.44;53.28
67799;SHT30;54596;43.216;27.904;2023-10-09T13:29:02;15.46;54.10
67799;SHT30;54596;43.216;27.904;2023-10-09T13:31:28;15.49;54.26
67799;SHT30;54596;43.216;27.904;2023-10-09T13:33:57;15.47;53.94
67799;SHT30;54596;43.216;27.904;2023-10-09T13:36:25;15.51;53.17
67799;SHT30;54596;43.216;27.904;2023-10-09T13:38:58;15.56;53.18
67799;SHT30;54596;43.216;27.904;2023-10-09T13:41:28;15.63;53.56
67799;SHT30;54596;43.216;27.904;2023-10-09T13:43:55;15.64;53.97
67799;SHT30;54596;43.216;27.904;2023-10-09T13:46:23;15.66;53.42
67799;SHT30;54596;43.216;27.904;2023-10-09T13:48:49;15.66;52.44
67799;SHT30;54596;43.216;27.904;2023-10-09T13:51:15;15.70;53.06
67799;SHT30;54596;43.216;27.904;2023-10-09T13:53:45;15.63;53.38
67799;SHT30;54596;43.216;27.904;2023-10-09T13:56:14;15.66;53.89
67799;SHT30;54596;43.216;27.904;2023-10-09T13:58:47;15.61;54.22
67799;SHT30;54596;43.216;27.904;2023-10-09T14:01:13;15.64;54.49
67799;SHT30;54596;43.216;27.904;2023-10-09T14:03:56;15.60;53.93
67799;SHT30;54596;43.216;27.904;2023-10-09T14:06:26;15.61;54.09
67799;SHT30;54596;43.216;27.904;2023-10-09T14:09:03;15.66;54.43
67799;SHT30;54596;43.216;27.904;2023-10-09T14:11:31;15.63;55.48
67799;SHT30;54596;43.216;27.904;2023-10-09T14:13:56;15.51;55.63
67799;SHT30;54596;43.216;27.904;2023-10-09T14:16:26;15.46;55.86
67799;SHT30;54596;43.216;27.904;2023-10-09T14:18:55;15.47;55.92
67799;SHT30;54596;43.216;27.904;2023-10-09T14:21:29;15.42;55.71
67799;SHT30;54596;43.216;27.904;2023-10-09T14:23:58;15.36;55.91
67799;SHT30;54596;43.216;27.904;2023-10-09T14:26:25;15.35;56.03
67799;SHT30;54596;43.216;27.904;2023-10-09T14:28:52;15.40;56.15
67799;SHT30;54596;43.216;27.904;2023-10-09T14:31:18;15.43;56.43
67799;SHT30;54596;43.216;27.904;2023-10-09T14:33:52;15.47;56.76
67799;SHT30;54596;43.216;27.904;2023-10-09T14:36:19;15.43;57.11
67799;SHT30;54596;43.216;27.904;2023-10-09T14:38:44;15.35;57.25
67799;SHT30;54596;43.216;27.904;2023-10-09T14:41:12;15.25;57.86
67799;SHT30;54596;43.216;27.904;2023-10-09T14:43:39;15.28;57.89
67799;SHT30;54596;43.216;27.904;2023-10-09T14:46:05;15.24;57.86
67799;SHT30;54596;43.216;27.904;2023-10-09T14:48:37;15.22;58.33
67799;SHT30;54596;43.216;27.904;2023-10-09T14:51:03;15.22;58.46
67799;SHT30;54596;43.216;27.904;2023-10-09T14:53:33;15.18;58.83
67799;SHT30;54596;43.216;27.904;2023-10-09T14:56:00;15.16;59.23
67799;SHT30;54596;43.216;27.904;2023-10-09T14:58:29;15.15;59.21
67799;SHT30;54596;43.216;27.904;2023-10-09T15:01:06;15.16;59.48
67799;SHT30;54596;43.216;27.904;2023-10-09T15:03:35;15.12;59.78
67799;SHT30;54596;43.216;27.904;2023-10-09T15:06:03;15.11;59.89
67799;SHT30;54596;43.216;27.904;2023-10-09T15:08:29;15.11;59.95
67799;SHT30;54596;43.216;27.904;2023-10-09T15:10:55;15.11;60.29
67799;SHT30;54596;43.216;27.904;2023-10-09T15:13:22;15.08;60.64
67799;SHT30;54596;43.216;27.904;2023-10-09T15:15:54;15.08;60.65
67799;SHT30;54596;43.216;27.904;2023-10-09T15:18:20;15.05;61.46
67799;SHT30;54596;43.216;27.904;2023-10-09T15:20:47;15.04;61.54
67799;SHT30;54596;43.216;27.904;2023-10-09T15:23:13;14.97;61.99
67799;SHT30;54596;43.216;27.904;2023-10-09T15:25:38;14.97;62.22
67799;SHT30;54596;43.216;27.904;2023-10-09T15:28:05;14.99;62.17
67799;SHT30;54596;43.216;27.904;2023-10-09T15:30:33;14.99;62.43
67799;SHT30;54596;43.216;27.904;2023-10-09T15:32:59;14.94;62.84
67799;SHT30;54596;43.216;27.904;2023-10-09T15:35:27;14.92;63.01
67799;SHT30;54596;43.216;27.904;2023-10-09T15:37:53;14.91;63.28
67799;SHT30;54596;43.216;27.904;2023-10-09T15:40:19;14.91;63.51
67799;SHT30;54596;43.216;27.904;2023-10-09T15:42:49;14.90;63.93
67799;SHT30;54596;43.216;27.904;2023-10-09T15:45:16;14.87;64.01
67799;SHT30;54596;43.216;27.904;2023-10-09T15:47:42;14.85;64.18
67799;SHT30;54596;43.216;27.904;2023-10-09T15:50:10;14.85;64.26
67799;SHT30;54596;43.216;27.904;2023-10-09T15:52:38;14.84;64.90
67799;SHT30;54596;43.216;27.904;2023-10-09T15:55:05;14.83;65.05
67799;SHT30;54596;43.216;27.904;2023-10-09T15:57:39;14.87;65.14
67799;SHT30;54596;43.216;27.904;2023-10-09T16:00:06;14.88;65.24
67799;SHT30;54596;43.216;27.904;2023-10-09T16:02:42;14.84;65.92
67799;SHT30;54596;43.216;27.904;2023-10-09T16:05:09;14.81;66.15
67799;SHT30;54596;43.216;27.904;2023-10-09T16:07:40;14.80;66.19
67799;SHT30;54596;43.216;27.904;2023-10-09T16:10:07;14.76;66.80
67799;SHT30;54596;43.216;27.904;2023-10-09T16:12:37;14.76;66.94
67799;SHT30;54596;43.216;27.904;2023-10-09T16:15:02;14.79;67.01
67799;SHT30;54596;43.216;27.904;2023-10-09T16:17:32;14.83;67.18
67799;SHT30;54596;43.216;27.904;2023-10-09T16:19:58;14.79;67.12
67799;SHT30;54596;43.216;27.904;2023-10-09T16:22:25;14.77;67.55
67799;SHT30;54596;43.216;27.904;2023-10-09T16:24:54;14.71;67.41